Barclay, Illinois
Current Conditions -  °F | °C
As of 11:52 PM on Friday 28 Nov 2014 (Local Time) from KSPI Reporting Station
Clear Clear  
Wind Chill: 31°   Ceiling: Unl
Heat Index: 39°   Visibility: 10mi
Dew Point: 34°   Wind: 14mph
Humidity: 82%   Direction: 180°S
Pressure: 29.86"   Gusts: NA
Location:  39.897°N, 89.5992°W
Report Text: KSPI 290552Z 18012KT 10SM CLR 04/01 A2986 RMK AO2 SLP115 T00390011 10044 20033 400441089 58011
Loading
Personal Weather Stations






























Interactive Weather Map New forecast layout! Learn more

10-Day Weather Forecast

Advertisements
Track Severe Weather on mobile